sensor_id;sensor_type;location;lat;lon;timestamp;P1;durP1;ratioP1;P2;durP2;ratioP2
25155;SDS011;71253;51.496;7.606;2023-12-04T00:00:28;31.48;;;15.05;;
25155;SDS011;71253;51.496;7.606;2023-12-04T00:05:30;28.63;;;13.68;;
25155;SDS011;71253;51.496;7.606;2023-12-04T00:10:31;32.40;;;14.88;;
25155;SDS011;71253;51.496;7.606;2023-12-04T00:15:33;30.40;;;13.63;;
25155;SDS011;71253;51.496;7.606;2023-12-04T00:20:35;30.40;;;13.75;;
25155;SDS011;71253;51.496;7.606;2023-12-04T00:25:36;34.78;;;13.93;;
25155;SDS011;71253;51.496;7.606;2023-12-04T00:30:38;27.35;;;13.07;;
25155;SDS011;71253;51.496;7.606;2023-12-04T00:35:40;28.15;;;13.63;;
25155;SDS011;71253;51.496;7.606;2023-12-04T00:40:41;29.00;;;12.77;;
25155;SDS011;71253;51.496;7.606;2023-12-04T00:45:43;28.50;;;13.88;;
25155;SDS011;71253;51.496;7.606;2023-12-04T00:50:44;28.83;;;12.52;;
25155;SDS011;71253;51.496;7.606;2023-12-04T00:55:46;25.63;;;12.20;;
25155;SDS011;71253;51.496;7.606;2023-12-04T01:00:48;25.00;;;11.55;;
25155;SDS011;71253;51.496;7.606;2023-12-04T01:05:49;24.77;;;12.23;;
25155;SDS011;71253;51.496;7.606;2023-12-04T01:10:51;25.52;;;12.05;;
25155;SDS011;71253;51.496;7.606;2023-12-04T01:15:52;25.27;;;12.02;;
25155;SDS011;71253;51.496;7.606;2023-12-04T01:20:54;24.17;;;12.00;;
25155;SDS011;71253;51.496;7.606;2023-12-04T01:25:55;21.95;;;11.02;;
25155;SDS011;71253;51.496;7.606;2023-12-04T01:30:57;24.40;;;10.70;;
25155;SDS011;71253;51.496;7.606;2023-12-04T01:35:58;20.77;;;10.35;;
25155;SDS011;71253;51.496;7.606;2023-12-04T01:41:00;21.25;;;10.27;;
25155;SDS011;71253;51.496;7.606;2023-12-04T01:46:01;23.00;;;11.18;;
25155;SDS011;71253;51.496;7.606;2023-12-04T01:51:05;21.40;;;9.88;;
25155;SDS011;71253;51.496;7.606;2023-12-04T01:56:09;20.83;;;9.93;;
25155;SDS011;71253;51.496;7.606;2023-12-04T02:01:11;24.38;;;10.57;;
25155;SDS011;71253;51.496;7.606;2023-12-04T02:06:13;20.15;;;9.88;;
25155;SDS011;71253;51.496;7.606;2023-12-04T02:11:15;18.60;;;9.35;;
25155;SDS011;71253;51.496;7.606;2023-12-04T02:16:18;19.35;;;9.18;;
25155;SDS011;71253;51.496;7.606;2023-12-04T02:21:24;19.13;;;9.23;;
25155;SDS011;71253;51.496;7.606;2023-12-04T02:26:28;17.52;;;8.27;;
25155;SDS011;71253;51.496;7.606;2023-12-04T02:31:35;18.60;;;9.02;;
25155;SDS011;71253;51.496;7.606;2023-12-04T02:36:40;15.40;;;7.75;;
25155;SDS011;71253;51.496;7.606;2023-12-04T02:41:42;16.35;;;8.40;;
25155;SDS011;71253;51.496;7.606;2023-12-04T02:46:44;17.88;;;8.65;;
25155;SDS011;71253;51.496;7.606;2023-12-04T02:51:45;17.88;;;8.30;;
25155;SDS011;71253;51.496;7.606;2023-12-04T02:56:47;15.57;;;7.30;;
25155;SDS011;71253;51.496;7.606;2023-12-04T03:01:49;18.05;;;8.50;;
25155;SDS011;71253;51.496;7.606;2023-12-04T03:06:50;19.08;;;8.50;;
25155;SDS011;71253;51.496;7.606;2023-12-04T03:11:52;18.80;;;8.23;;
25155;SDS011;71253;51.496;7.606;2023-12-04T03:16:53;17.73;;;8.00;;
25155;SDS011;71253;51.496;7.606;2023-12-04T03:21:55;16.50;;;7.55;;
25155;SDS011;71253;51.496;7.606;2023-12-04T03:26:56;15.77;;;8.18;;
25155;SDS011;71253;51.496;7.606;2023-12-04T03:31:58;13.80;;;7.60;;
25155;SDS011;71253;51.496;7.606;2023-12-04T03:37:00;14.50;;;7.55;;
25155;SDS011;71253;51.496;7.606;2023-12-04T03:42:01;16.77;;;7.95;;
25155;SDS011;71253;51.496;7.606;2023-12-04T03:47:03;15.98;;;7.43;;
25155;SDS011;71253;51.496;7.606;2023-12-04T03:52:05;15.30;;;7.18;;
25155;SDS011;71253;51.496;7.606;2023-12-04T03:57:06;16.30;;;7.43;;
25155;SDS011;71253;51.496;7.606;2023-12-04T04:02:08;14.38;;;6.70;;
25155;SDS011;71253;51.496;7.606;2023-12-04T04:07:09;14.10;;;6.82;;
25155;SDS011;71253;51.496;7.606;2023-12-04T04:12:11;13.70;;;7.00;;
25155;SDS011;71253;51.496;7.606;2023-12-04T04:17:12;15.23;;;7.75;;
25155;SDS011;71253;51.496;7.606;2023-12-04T04:22:14;15.82;;;7.55;;
25155;SDS011;71253;51.496;7.606;2023-12-04T04:27:16;13.05;;;6.97;;
25155;SDS011;71253;51.496;7.606;2023-12-04T04:32:17;16.67;;;6.97;;
25155;SDS011;71253;51.496;7.606;2023-12-04T04:37:19;13.80;;;6.85;;
25155;SDS011;71253;51.496;7.606;2023-12-04T04:42:21;14.02;;;7.15;;
25155;SDS011;71253;51.496;7.606;2023-12-04T04:47:23;13.07;;;6.70;;
25155;SDS011;71253;51.496;7.606;2023-12-04T04:52:25;13.40;;;6.45;;
25155;SDS011;71253;51.496;7.606;2023-12-04T04:57:27;12.95;;;6.97;;
25155;SDS011;71253;51.496;7.606;2023-12-04T05:02:29;12.63;;;6.53;;
25155;SDS011;71253;51.496;7.606;2023-12-04T05:07:30;11.68;;;6.38;;
25155;SDS011;71253;51.496;7.606;2023-12-04T05:12:32;14.23;;;6.93;;
25155;SDS011;71253;51.496;7.606;2023-12-04T05:17:33;13.27;;;6.40;;
25155;SDS011;71253;51.496;7.606;2023-12-04T05:22:35;10.43;;;5.72;;
25155;SDS011;71253;51.496;7.606;2023-12-04T05:27:36;12.77;;;6.60;;
25155;SDS011;71253;51.496;7.606;2023-12-04T05:32:38;16.48;;;6.80;;
25155;SDS011;71253;51.496;7.606;2023-12-04T05:37:39;13.88;;;6.75;;
25155;SDS011;71253;51.496;7.606;2023-12-04T05:42:41;12.73;;;6.20;;
25155;SDS011;71253;51.496;7.606;2023-12-04T05:47:42;16.65;;;7.28;;
25155;SDS011;71253;51.496;7.606;2023-12-04T05:52:44;11.40;;;6.00;;
25155;SDS011;71253;51.496;7.606;2023-12-04T05:57:46;11.48;;;5.75;;
25155;SDS011;71253;51.496;7.606;2023-12-04T06:02:47;11.48;;;5.68;;
25155;SDS011;71253;51.496;7.606;2023-12-04T06:07:49;12.75;;;5.47;;
25155;SDS011;71253;51.496;7.606;2023-12-04T06:12:50;11.65;;;5.00;;
25155;SDS011;71253;51.496;7.606;2023-12-04T06:17:52;8.90;;;4.50;;
25155;SDS011;71253;51.496;7.606;2023-12-04T06:22:54;10.02;;;4.95;;
25155;SDS011;71253;51.496;7.606;2023-12-04T06:27:55;12.27;;;4.78;;
25155;SDS011;71253;51.496;7.606;2023-12-04T06:32:57;8.63;;;4.60;;
25155;SDS011;71253;51.496;7.606;2023-12-04T06:38:00;12.13;;;5.05;;
25155;SDS011;71253;51.496;7.606;2023-12-04T06:43:07;12.48;;;5.13;;
25155;SDS011;71253;51.496;7.606;2023-12-04T06:48:10;12.13;;;5.30;;
25155;SDS011;71253;51.496;7.606;2023-12-04T06:53:14;9.50;;;5.00;;
25155;SDS011;71253;51.496;7.606;2023-12-04T06:58:15;10.02;;;4.85;;
25155;SDS011;71253;51.496;7.606;2023-12-04T07:03:17;10.85;;;4.68;;
25155;SDS011;71253;51.496;7.606;2023-12-04T07:08:18;8.93;;;4.45;;
25155;SDS011;71253;51.496;7.606;2023-12-04T07:13:20;10.07;;;5.00;;
25155;SDS011;71253;51.496;7.606;2023-12-04T07:18:21;12.75;;;5.20;;
25155;SDS011;71253;51.496;7.606;2023-12-04T07:23:23;12.93;;;4.68;;
25155;SDS011;71253;51.496;7.606;2023-12-04T07:28:26;8.65;;;4.40;;
25155;SDS011;71253;51.496;7.606;2023-12-04T07:33:28;8.88;;;4.60;;
25155;SDS011;71253;51.496;7.606;2023-12-04T07:38:29;10.85;;;4.40;;
25155;SDS011;71253;51.496;7.606;2023-12-04T07:43:31;8.23;;;4.43;;
25155;SDS011;71253;51.496;7.606;2023-12-04T07:48:32;10.32;;;4.65;;
25155;SDS011;71253;51.496;7.606;2023-12-04T07:53:34;11.48;;;5.07;;
25155;SDS011;71253;51.496;7.606;2023-12-04T07:58:35;11.00;;;4.50;;
25155;SDS011;71253;51.496;7.606;2023-12-04T08:03:37;9.63;;;4.53;;
25155;SDS011;71253;51.496;7.606;2023-12-04T08:08:39;10.45;;;4.68;;
25155;SDS011;71253;51.496;7.606;2023-12-04T08:13:40;11.50;;;4.45;;
25155;SDS011;71253;51.496;7.606;2023-12-04T08:18:42;11.85;;;4.18;;
25155;SDS011;71253;51.496;7.606;2023-12-04T08:23:43;9.57;;;4.35;;
25155;SDS011;71253;51.496;7.606;2023-12-04T08:28:45;8.60;;;4.35;;
25155;SDS011;71253;51.496;7.606;2023-12-04T08:33:46;8.23;;;4.32;;
25155;SDS011;71253;51.496;7.606;2023-12-04T08:38:48;9.48;;;4.15;;
25155;SDS011;71253;51.496;7.606;2023-12-04T08:43:49;8.35;;;4.50;;
25155;SDS011;71253;51.496;7.606;2023-12-04T08:48:51;8.32;;;4.40;;
25155;SDS011;71253;51.496;7.606;2023-12-04T08:53:53;10.43;;;4.28;;
25155;SDS011;71253;51.496;7.606;2023-12-04T08:58:54;8.75;;;4.63;;
25155;SDS011;71253;51.496;7.606;2023-12-04T09:03:56;8.15;;;4.57;;
25155;SDS011;71253;51.496;7.606;2023-12-04T09:08:58;8.93;;;4.40;;
25155;SDS011;71253;51.496;7.606;2023-12-04T09:14:01;7.93;;;4.38;;
25155;SDS011;71253;51.496;7.606;2023-12-04T09:19:02;11.07;;;5.05;;
25155;SDS011;71253;51.496;7.606;2023-12-04T09:24:04;9.05;;;4.60;;
25155;SDS011;71253;51.496;7.606;2023-12-04T09:29:06;17.15;;;4.75;;
25155;SDS011;71253;51.496;7.606;2023-12-04T09:34:07;9.32;;;4.72;;
25155;SDS011;71253;51.496;7.606;2023-12-04T09:39:09;9.07;;;5.03;;
25155;SDS011;71253;51.496;7.606;2023-12-04T09:44:11;11.23;;;4.97;;
25155;SDS011;71253;51.496;7.606;2023-12-04T09:49:13;10.20;;;5.32;;
25155;SDS011;71253;51.496;7.606;2023-12-04T09:54:16;11.13;;;4.95;;
25155;SDS011;71253;51.496;7.606;2023-12-04T09:59:18;11.40;;;5.05;;
25155;SDS011;71253;51.496;7.606;2023-12-04T10:04:25;10.02;;;4.93;;
25155;SDS011;71253;51.496;7.606;2023-12-04T10:09:27;10.30;;;5.47;;
25155;SDS011;71253;51.496;7.606;2023-12-04T10:14:28;8.77;;;4.90;;
25155;SDS011;71253;51.496;7.606;2023-12-04T10:19:30;9.40;;;5.05;;
25155;SDS011;71253;51.496;7.606;2023-12-04T10:24:32;10.88;;;5.32;;
25155;SDS011;71253;51.496;7.606;2023-12-04T10:34:43;16.75;;;5.40;;
25155;SDS011;71253;51.496;7.606;2023-12-04T10:39:49;15.48;;;4.88;;
25155;SDS011;71253;51.496;7.606;2023-12-04T10:44:52;11.40;;;4.50;;
25155;SDS011;71253;51.496;7.606;2023-12-04T10:49:56;8.07;;;4.40;;
25155;SDS011;71253;51.496;7.606;2023-12-04T10:54:58;8.57;;;4.60;;
25155;SDS011;71253;51.496;7.606;2023-12-04T11:00:04;10.25;;;4.97;;
25155;SDS011;71253;51.496;7.606;2023-12-04T11:05:09;8.60;;;4.75;;
25155;SDS011;71253;51.496;7.606;2023-12-04T11:10:15;11.60;;;4.97;;
25155;SDS011;71253;51.496;7.606;2023-12-04T11:15:18;10.18;;;5.15;;
25155;SDS011;71253;51.496;7.606;2023-12-04T11:20:24;11.07;;;4.90;;
25155;SDS011;71253;51.496;7.606;2023-12-04T11:25:30;14.45;;;5.47;;
25155;SDS011;71253;51.496;7.606;2023-12-04T11:30:33;11.85;;;5.13;;
25155;SDS011;71253;51.496;7.606;2023-12-04T11:35:35;10.43;;;5.22;;
25155;SDS011;71253;51.496;7.606;2023-12-04T11:40:36;12.13;;;5.80;;
25155;SDS011;71253;51.496;7.606;2023-12-04T11:45:39;11.80;;;5.68;;
25155;SDS011;71253;51.496;7.606;2023-12-04T11:50:43;16.05;;;7.07;;
25155;SDS011;71253;51.496;7.606;2023-12-04T11:55:45;15.70;;;6.60;;
25155;SDS011;71253;51.496;7.606;2023-12-04T12:00:47;14.00;;;6.82;;
25155;SDS011;71253;51.496;7.606;2023-12-04T12:05:49;17.08;;;7.80;;
25155;SDS011;71253;51.496;7.606;2023-12-04T12:10:51;11.20;;;6.65;;
25155;SDS011;71253;51.496;7.606;2023-12-04T12:15:54;17.05;;;7.15;;
25155;SDS011;71253;51.496;7.606;2023-12-04T12:20:55;17.38;;;7.00;;
25155;SDS011;71253;51.496;7.606;2023-12-04T12:25:57;13.65;;;7.05;;
25155;SDS011;71253;51.496;7.606;2023-12-04T12:31:01;17.48;;;7.55;;
25155;SDS011;71253;51.496;7.606;2023-12-04T12:36:06;16.20;;;7.85;;
25155;SDS011;71253;51.496;7.606;2023-12-04T12:41:08;20.52;;;7.70;;
25155;SDS011;71253;51.496;7.606;2023-12-04T12:46:10;19.60;;;7.50;;
25155;SDS011;71253;51.496;7.606;2023-12-04T12:51:12;17.65;;;7.47;;
25155;SDS011;71253;51.496;7.606;2023-12-04T12:56:14;16.42;;;8.00;;
25155;SDS011;71253;51.496;7.606;2023-12-04T13:01:15;21.40;;;8.18;;
25155;SDS011;71253;51.496;7.606;2023-12-04T13:06:17;16.23;;;8.55;;
25155;SDS011;71253;51.496;7.606;2023-12-04T13:11:19;15.82;;;7.75;;
25155;SDS011;71253;51.496;7.606;2023-12-04T13:16:20;15.23;;;8.25;;
25155;SDS011;71253;51.496;7.606;2023-12-04T13:21:22;18.88;;;7.93;;
25155;SDS011;71253;51.496;7.606;2023-12-04T13:26:24;17.50;;;7.95;;
25155;SDS011;71253;51.496;7.606;2023-12-04T13:31:25;16.52;;;8.02;;
25155;SDS011;71253;51.496;7.606;2023-12-04T13:36:27;13.98;;;7.20;;
25155;SDS011;71253;51.496;7.606;2023-12-04T13:41:29;14.00;;;7.70;;
25155;SDS011;71253;51.496;7.606;2023-12-04T13:46:32;16.65;;;7.30;;
25155;SDS011;71253;51.496;7.606;2023-12-04T13:51:33;17.88;;;8.02;;
25155;SDS011;71253;51.496;7.606;2023-12-04T13:56:36;15.75;;;7.97;;
25155;SDS011;71253;51.496;7.606;2023-12-04T14:01:38;12.88;;;7.40;;
25155;SDS011;71253;51.496;7.606;2023-12-04T14:06:39;13.75;;;7.40;;
25155;SDS011;71253;51.496;7.606;2023-12-04T14:11:44;15.27;;;7.30;;
25155;SDS011;71253;51.496;7.606;2023-12-04T14:16:46;16.10;;;6.93;;
25155;SDS011;71253;51.496;7.606;2023-12-04T14:21:48;13.10;;;7.13;;
25155;SDS011;71253;51.496;7.606;2023-12-04T14:26:51;13.70;;;7.68;;
25155;SDS011;71253;51.496;7.606;2023-12-04T14:31:53;15.10;;;7.57;;
25155;SDS011;71253;51.496;7.606;2023-12-04T14:36:54;12.98;;;6.80;;
25155;SDS011;71253;51.496;7.606;2023-12-04T14:41:56;12.00;;;6.53;;
25155;SDS011;71253;51.496;7.606;2023-12-04T14:46:58;15.13;;;7.30;;
25155;SDS011;71253;51.496;7.606;2023-12-04T14:52:00;13.18;;;7.60;;
25155;SDS011;71253;51.496;7.606;2023-12-04T14:57:01;13.02;;;7.40;;
25155;SDS011;71253;51.496;7.606;2023-12-04T15:02:03;12.40;;;7.22;;
25155;SDS011;71253;51.496;7.606;2023-12-04T15:07:05;12.93;;;6.95;;
25155;SDS011;71253;51.496;7.606;2023-12-04T15:12:06;15.13;;;6.55;;
25155;SDS011;71253;51.496;7.606;2023-12-04T15:17:08;13.02;;;6.70;;
25155;SDS011;71253;51.496;7.606;2023-12-04T15:22:09;12.93;;;7.10;;
25155;SDS011;71253;51.496;7.606;2023-12-04T15:27:11;12.90;;;6.30;;
25155;SDS011;71253;51.496;7.606;2023-12-04T15:32:13;11.93;;;5.93;;
25155;SDS011;71253;51.496;7.606;2023-12-04T15:37:14;10.93;;;6.13;;
25155;SDS011;71253;51.496;7.606;2023-12-04T15:42:16;12.13;;;6.00;;
25155;SDS011;71253;51.496;7.606;2023-12-04T15:47:17;8.75;;;4.47;;
25155;SDS011;71253;51.496;7.606;2023-12-04T15:52:19;9.13;;;4.70;;
25155;SDS011;71253;51.496;7.606;2023-12-04T15:57:22;9.00;;;4.57;;
25155;SDS011;71253;51.496;7.606;2023-12-04T16:02:24;8.55;;;4.05;;
25155;SDS011;71253;51.496;7.606;2023-12-04T16:07:25;6.60;;;3.95;;
25155;SDS011;71253;51.496;7.606;2023-12-04T16:12:27;8.02;;;4.43;;
25155;SDS011;71253;51.496;7.606;2023-12-04T16:17:29;12.95;;;4.68;;
25155;SDS011;71253;51.496;7.606;2023-12-04T16:22:31;9.27;;;4.55;;
25155;SDS011;71253;51.496;7.606;2023-12-04T16:27:32;8.88;;;4.60;;
25155;SDS011;71253;51.496;7.606;2023-12-04T16:32:34;8.55;;;4.85;;
25155;SDS011;71253;51.496;7.606;2023-12-04T16:37:35;7.95;;;4.57;;
25155;SDS011;71253;51.496;7.606;2023-12-04T16:42:38;8.85;;;4.93;;
25155;SDS011;71253;51.496;7.606;2023-12-04T16:47:40;9.18;;;4.72;;
25155;SDS011;71253;51.496;7.606;2023-12-04T16:52:41;8.00;;;4.72;;
25155;SDS011;71253;51.496;7.606;2023-12-04T16:57:44;11.43;;;5.88;;
25155;SDS011;71253;51.496;7.606;2023-12-04T17:02:45;8.38;;;5.03;;
25155;SDS011;71253;51.496;7.606;2023-12-04T17:07:47;9.55;;;5.43;;
25155;SDS011;71253;51.496;7.606;2023-12-04T17:12:49;11.43;;;5.38;;
25155;SDS011;71253;51.496;7.606;2023-12-04T17:17:50;9.95;;;5.40;;
25155;SDS011;71253;51.496;7.606;2023-12-04T17:22:52;10.82;;;5.63;;
25155;SDS011;71253;51.496;7.606;2023-12-04T17:27:53;10.77;;;5.55;;
25155;SDS011;71253;51.496;7.606;2023-12-04T17:32:55;10.73;;;6.10;;
25155;SDS011;71253;51.496;7.606;2023-12-04T17:37:57;13.15;;;6.13;;
25155;SDS011;71253;51.496;7.606;2023-12-04T17:42:58;10.88;;;6.00;;
25155;SDS011;71253;51.496;7.606;2023-12-04T17:48:00;10.10;;;6.20;;
25155;SDS011;71253;51.496;7.606;2023-12-04T17:53:01;9.27;;;5.57;;
25155;SDS011;71253;51.496;7.606;2023-12-04T17:58:03;9.60;;;5.35;;
25155;SDS011;71253;51.496;7.606;2023-12-04T18:03:05;8.65;;;5.43;;
25155;SDS011;71253;51.496;7.606;2023-12-04T18:08:08;8.65;;;5.25;;
25155;SDS011;71253;51.496;7.606;2023-12-04T18:13:09;10.02;;;5.50;;
25155;SDS011;71253;51.496;7.606;2023-12-04T18:18:11;10.82;;;5.75;;
25155;SDS011;71253;51.496;7.606;2023-12-04T18:23:13;11.15;;;5.70;;
25155;SDS011;71253;51.496;7.606;2023-12-04T18:28:14;10.93;;;6.05;;
25155;SDS011;71253;51.496;7.606;2023-12-04T18:33:16;9.30;;;5.60;;
25155;SDS011;71253;51.496;7.606;2023-12-04T18:38:18;8.45;;;4.72;;
25155;SDS011;71253;51.496;7.606;2023-12-04T18:43:30;9.02;;;4.93;;
25155;SDS011;71253;51.496;7.606;2023-12-04T18:48:34;8.90;;;4.80;;
25155;SDS011;71253;51.496;7.606;2023-12-04T18:53:37;10.02;;;5.63;;
25155;SDS011;71253;51.496;7.606;2023-12-04T18:58:39;9.65;;;5.50;;
25155;SDS011;71253;51.496;7.606;2023-12-04T19:03:41;9.95;;;5.00;;
25155;SDS011;71253;51.496;7.606;2023-12-04T19:08:42;10.05;;;5.50;;
25155;SDS011;71253;51.496;7.606;2023-12-04T19:13:44;11.55;;;6.13;;
25155;SDS011;71253;51.496;7.606;2023-12-04T19:18:45;12.85;;;6.20;;
25155;SDS011;71253;51.496;7.606;2023-12-04T19:23:47;11.32;;;6.10;;
25155;SDS011;71253;51.496;7.606;2023-12-04T19:28:48;14.55;;;6.78;;
25155;SDS011;71253;51.496;7.606;2023-12-04T19:33:50;13.23;;;6.50;;
25155;SDS011;71253;51.496;7.606;2023-12-04T19:38:59;12.85;;;6.18;;
25155;SDS011;71253;51.496;7.606;2023-12-04T19:44:01;10.85;;;6.32;;
25155;SDS011;71253;51.496;7.606;2023-12-04T19:49:02;10.55;;;5.80;;
25155;SDS011;71253;51.496;7.606;2023-12-04T19:54:04;11.98;;;5.97;;
25155;SDS011;71253;51.496;7.606;2023-12-04T19:59:05;11.27;;;6.30;;
25155;SDS011;71253;51.496;7.606;2023-12-04T20:04:07;11.68;;;6.10;;
25155;SDS011;71253;51.496;7.606;2023-12-04T20:09:10;12.95;;;6.15;;
25155;SDS011;71253;51.496;7.606;2023-12-04T20:14:11;15.68;;;5.90;;
25155;SDS011;71253;51.496;7.606;2023-12-04T20:19:13;9.52;;;6.28;;
25155;SDS011;71253;51.496;7.606;2023-12-04T20:24:15;15.65;;;6.13;;
25155;SDS011;71253;51.496;7.606;2023-12-04T20:29:17;11.07;;;6.45;;
25155;SDS011;71253;51.496;7.606;2023-12-04T20:34:18;11.38;;;6.32;;
25155;SDS011;71253;51.496;7.606;2023-12-04T20:39:20;9.82;;;6.13;;
25155;SDS011;71253;51.496;7.606;2023-12-04T20:44:22;12.88;;;6.25;;
25155;SDS011;71253;51.496;7.606;2023-12-04T20:49:27;10.90;;;6.57;;
25155;SDS011;71253;51.496;7.606;2023-12-04T20:54:29;8.68;;;5.18;;
25155;SDS011;71253;51.496;7.606;2023-12-04T20:59:31;11.77;;;5.07;;
25155;SDS011;71253;51.496;7.606;2023-12-04T21:04:34;7.72;;;4.65;;
25155;SDS011;71253;51.496;7.606;2023-12-04T21:09:36;6.38;;;4.30;;
25155;SDS011;71253;51.496;7.606;2023-12-04T21:14:37;8.05;;;4.63;;
25155;SDS011;71253;51.496;7.606;2023-12-04T21:19:39;7.25;;;4.25;;
25155;SDS011;71253;51.496;7.606;2023-12-04T21:24:40;6.60;;;4.05;;
25155;SDS011;71253;51.496;7.606;2023-12-04T21:29:42;7.45;;;4.40;;
25155;SDS011;71253;51.496;7.606;2023-12-04T21:34:44;13.43;;;4.90;;
25155;SDS011;71253;51.496;7.606;2023-12-04T21:39:45;8.15;;;4.85;;
25155;SDS011;71253;51.496;7.606;2023-12-04T21:44:47;8.10;;;4.60;;
25155;SDS011;71253;51.496;7.606;2023-12-04T21:49:49;8.35;;;4.82;;
25155;SDS011;71253;51.496;7.606;2023-12-04T21:54:50;9.40;;;5.13;;
25155;SDS011;71253;51.496;7.606;2023-12-04T21:59:52;8.80;;;5.25;;
25155;SDS011;71253;51.496;7.606;2023-12-04T22:04:54;9.57;;;4.50;;
25155;SDS011;71253;51.496;7.606;2023-12-04T22:09:55;8.43;;;5.22;;
25155;SDS011;71253;51.496;7.606;2023-12-04T22:14:57;9.70;;;5.65;;
25155;SDS011;71253;51.496;7.606;2023-12-04T22:19:59;12.48;;;5.28;;
25155;SDS011;71253;51.496;7.606;2023-12-04T22:25:00;8.82;;;5.43;;
25155;SDS011;71253;51.496;7.606;2023-12-04T22:30:02;8.02;;;5.07;;
25155;SDS011;71253;51.496;7.606;2023-12-04T22:35:04;9.25;;;5.85;;
25155;SDS011;71253;51.496;7.606;2023-12-04T22:40:07;8.43;;;5.53;;
25155;SDS011;71253;51.496;7.606;2023-12-04T22:45:12;8.80;;;5.32;;
25155;SDS011;71253;51.496;7.606;2023-12-04T22:50:14;9.82;;;5.28;;
25155;SDS011;71253;51.496;7.606;2023-12-04T22:55:15;7.45;;;5.10;;
25155;SDS011;71253;51.496;7.606;2023-12-04T23:00:17;9.07;;;5.10;;
25155;SDS011;71253;51.496;7.606;2023-12-04T23:05:19;9.27;;;4.80;;
25155;SDS011;71253;51.496;7.606;2023-12-04T23:10:20;7.65;;;5.00;;
25155;SDS011;71253;51.496;7.606;2023-12-04T23:15:25;8.38;;;4.80;;
25155;SDS011;71253;51.496;7.606;2023-12-04T23:20:29;6.57;;;4.28;;
25155;SDS011;71253;51.496;7.606;2023-12-04T23:25:30;6.75;;;3.90;;
25155;SDS011;71253;51.496;7.606;2023-12-04T23:30:32;6.43;;;4.30;;
25155;SDS011;71253;51.496;7.606;2023-12-04T23:35:34;6.78;;;3.97;;
25155;SDS011;71253;51.496;7.606;2023-12-04T23:40:35;6.05;;;3.90;;
25155;SDS011;71253;51.496;7.606;2023-12-04T23:45:38;7.78;;;4.00;;
25155;SDS011;71253;51.496;7.606;2023-12-04T23:50:42;6.65;;;4.32;;
25155;SDS011;71253;51.496;7.606;2023-12-04T23:55:43;6.22;;;4.57;;
